Brevik Bridge — VRHY7 — position and weather

sailwx.info

Track history (hours):
 
Tides and Currents Weather Stations Pressure Air Temp Water Temp Dewpoint Dewpoint Depression Visibility Wind Speed Wind Dir Waves Ship Positions

Brevik Bridge

Last reported at 2014-Dec-09 04:29 UTC. Time now 2014-Dec-18 20:59 UTC.
Position S 34°40' E 018°52'.
Warning: this ship's position is 9 days out of date.

Length 268 m; draft 11.3 m.

Type: Cargo ship. MMSI: 477866200.

Date/timePositionNaut miles runAvg speedWind from/ knotsBaromVisibWave heightAir tempDewpointWater temp
2014-Dec-09 04:29S 34°40' E 018°52'1414.7
2014-Dec-09 03:33S 34°34' E 018°37'1514.6
2014-Dec-09 02:32S 34°27' E 018°21'1413.8
2014-Dec-09 01:33S 34°15' E 018°14'1414.6
2014-Dec-09 00:33S 34°00' E 018°13'13 1.0
2014-Dec-08 11:30S 33°55' E 018°27'0 0.0
2014-Dec-08 10:30S 33°55' E 018°27'40 0.9
2014-Dec-06 12:33S 34°34' E 018°36'1413.4
2014-Dec-06 11:28S 34°40' E 018°52'65414.2
2014-Dec-04 13:32S 30°26' E 030°47'1513.5
2014-Dec-04 12:27S 30°13' E 030°56'1213.9
2014-Dec-04 11:33S 30°02' E 031°02'1212.1
2014-Dec-04 10:33S 29°50' E 031°07'5 5.1
2014-Dec-04 09:33S 29°53' E 031°01'0 0.0
2014-Dec-04 08:29S 29°53' E 031°02'0 0.0
2014-Dec-04 07:29S 29°53' E 031°02'0 0.0
2014-Dec-04 06:29S 29°53' E 031°02'0 0.0
2014-Dec-04 05:29S 29°53' E 031°02'0 0.0
2014-Dec-04 04:29S 29°53' E 031°02'0 0.0
2014-Dec-04 03:29S 29°53' E 031°02'0 0.0
2014-Dec-04 02:23S 29°53' E 031°02'0 0.0
2014-Dec-04 01:29S 29°53' E 031°02'0 0.0
2014-Dec-04 00:29S 29°53' E 031°01'0 0.0
2014-Dec-03 23:29S 29°53' E 031°02'0 0.0
2014-Dec-03 22:23S 29°53' E 031°02'0 0.0
2014-Dec-03 21:11S 29°53' E 031°02'0 0.0
2014-Dec-03 20:29S 29°53' E 031°02'0 0.0
2014-Dec-03 19:29S 29°53' E 031°02'0 0.0
2014-Dec-03 18:29S 29°53' E 031°01'0 0.0
2014-Dec-03 17:29S 29°53' E 031°02'0 0.0
2014-Dec-03 16:29S 29°53' E 031°02'0 0.0
2014-Dec-03 15:29S 29°53' E 031°02'0 0.0
2014-Dec-03 14:29S 29°53' E 031°02'0 0.0
2014-Dec-03 13:29S 29°53' E 031°02'0 0.0
2014-Dec-03 12:29S 29°53' E 031°02'0 0.0
2014-Dec-03 11:29S 29°53' E 031°01'0 0.0
2014-Dec-03 10:29S 29°53' E 031°02'0 0.0
2014-Dec-03 09:29S 29°53' E 031°02'0 0.0
2014-Dec-03 08:29S 29°53' E 031°02'0 0.0
2014-Dec-03 07:29S 29°53' E 031°02'0 0.0
2014-Dec-03 06:29S 29°53' E 031°02'0 0.0
2014-Dec-03 05:29S 29°53' E 031°02'0 0.0
2014-Dec-03 04:29S 29°53' E 031°02'0 0.0
2014-Dec-03 03:29S 29°53' E 031°02'0 0.0
2014-Dec-03 02:29S 29°53' E 031°02'0 0.0
2014-Dec-03 01:29S 29°53' E 031°02'0 0.0
2014-Dec-03 00:29S 29°53' E 031°01'0 0.0
2014-Dec-02 23:29S 29°53' E 031°02'0 0.0
2014-Dec-02 22:29S 29°53' E 031°02'0 0.0
2014-Dec-02 21:29S 29°53' E 031°02'0 0.0
2014-Dec-02 20:29S 29°53' E 031°02'0 0.0
2014-Dec-02 19:29S 29°53' E 031°02'0 0.0
2014-Dec-02 18:23S 29°53' E 031°02'0 0.0
2014-Dec-02 17:29S 29°53' E 031°02'0 0.0
2014-Dec-02 16:29S 29°53' E 031°02'0 0.0
2014-Dec-02 15:23S 29°53' E 031°01'0 0.0
2014-Dec-02 14:29S 29°53' E 031°02'0 0.0
2014-Dec-02 13:29S 29°53' E 031°02'0 0.0
2014-Dec-02 12:29S 29°53' E 031°02'0 0.0
2014-Dec-02 11:29S 29°53' E 031°01'0 0.0
2014-Dec-02 10:29S 29°53' E 031°02'0 0.0
2014-Dec-02 09:29S 29°53' E 031°02'0 0.0
2014-Dec-02 08:29S 29°53' E 031°02'0 0.0
2014-Dec-02 07:29S 29°53' E 031°02'0 0.0
2014-Dec-02 06:29S 29°53' E 031°02'0 0.0
2014-Dec-02 05:29S 29°53' E 031°02'0 0.0
2014-Dec-02 04:29S 29°53' E 031°02'0 0.0
2014-Dec-02 03:29S 29°53' E 031°02'0 0.0
2014-Dec-02 02:29S 29°53' E 031°02'0 0.0
2014-Dec-02 01:29S 29°53' E 031°02'0 0.0
2014-Dec-02 00:23S 29°53' E 031°02'0 0.0
2014-Dec-01 23:29S 29°53' E 031°02'0 0.0
2014-Dec-01 22:23S 29°53' E 031°02'0 0.0
2014-Dec-01 21:29S 29°53' E 031°02'0 0.0
2014-Dec-01 20:29S 29°53' E 031°02'4 4.4
2014-Dec-01 19:33S 29°50' E 031°05'2 1.7
2014-Dec-01 18:33S 29°49' E 031°07'2 2.1
2014-Dec-01 17:33S 29°47' E 031°06'0 0.3
2014-Dec-01 16:28S 29°47' E 031°06'0 0.0
2014-Dec-01 15:28S 29°47' E 031°06'0 0.0
2014-Dec-01 14:22S 29°47' E 031°06'0 0.0
2014-Dec-01 13:28S 29°47' E 031°06'0 0.0
2014-Dec-01 12:28S 29°47' E 031°06'0 0.0
2014-Dec-01 11:22S 29°47' E 031°06'0 0.0
2014-Dec-01 10:28S 29°47' E 031°06'0 0.0
2014-Dec-01 09:28S 29°47' E 031°06'0 0.0
2014-Dec-01 08:28S 29°47' E 031°06'0 0.0
2014-Dec-01 07:16S 29°47' E 031°06'0 0.0
2014-Dec-01 06:28S 29°47' E 031°06'0 0.0
2014-Dec-01 05:28S 29°47' E 031°06'0 0.0
2014-Dec-01 04:28S 29°47' E 031°06'0 0.0
2014-Dec-01 03:28S 29°47' E 031°06'0 0.0
2014-Dec-01 02:28S 29°47' E 031°06'0 0.0
2014-Dec-01 01:28S 29°47' E 031°06'0 0.0
2014-Dec-01 00:28S 29°47' E 031°06'0 0.0
2014-Nov-30 23:28S 29°47' E 031°06'0 0.0
2014-Nov-30 22:22S 29°47' E 031°06'0 0.0
2014-Nov-30 21:28S 29°47' E 031°06'0 0.0
2014-Nov-30 20:28S 29°47' E 031°06'1 0.6
2014-Nov-30 19:33S 29°47' E 031°07'7 7.1
2014-Nov-30 18:33S 29°47' E 031°15'1212.4
2014-Nov-30 17:33S 29°43' E 031°28'1312.6
2014-Nov-30 16:33S 29°40' E 031°42'  
Track history (hours):
 
Tides and Currents Weather Stations Pressure Air Temp Water Temp Dewpoint Dewpoint Depression Visibility Wind Speed Wind Dir Waves Ship Positions

Brevik Bridge

Last reported at 2014-Dec-09 04:29 UTC. Time now 2014-Dec-18 20:59 UTC.
Position S 34°40' E 018°52'.
Warning: this ship's position is 9 days out of date.

Length 268 m; draft 11.3 m.

Type: Cargo ship. MMSI: 477866200.

Date/timePositionNaut miles runAvg speedWind from/ knotsBaromVisibWave heightAir tempDewpointWater temp
2014-Dec-09 04:29S 34°40' E 018°52'1414.7
2014-Dec-09 03:33S 34°34' E 018°37'1514.6
2014-Dec-09 02:32S 34°27' E 018°21'1413.8
2014-Dec-09 01:33S 34°15' E 018°14'1414.6
2014-Dec-09 00:33S 34°00' E 018°13'13 1.0
2014-Dec-08 11:30S 33°55' E 018°27'0 0.0
2014-Dec-08 10:30S 33°55' E 018°27'40 0.9
2014-Dec-06 12:33S 34°34' E 018°36'1413.4
2014-Dec-06 11:28S 34°40' E 018°52'65414.2
2014-Dec-04 13:32S 30°26' E 030°47'1513.5
2014-Dec-04 12:27S 30°13' E 030°56'1213.9
2014-Dec-04 11:33S 30°02' E 031°02'1212.1
2014-Dec-04 10:33S 29°50' E 031°07'5 5.1
2014-Dec-04 09:33S 29°53' E 031°01'0 0.0
2014-Dec-04 08:29S 29°53' E 031°02'0 0.0
2014-Dec-04 07:29S 29°53' E 031°02'0 0.0
2014-Dec-04 06:29S 29°53' E 031°02'0 0.0
2014-Dec-04 05:29S 29°53' E 031°02'0 0.0
2014-Dec-04 04:29S 29°53' E 031°02'0 0.0
2014-Dec-04 03:29S 29°53' E 031°02'0 0.0
2014-Dec-04 02:23S 29°53' E 031°02'0 0.0
2014-Dec-04 01:29S 29°53' E 031°02'0 0.0
2014-Dec-04 00:29S 29°53' E 031°01'0 0.0
2014-Dec-03 23:29S 29°53' E 031°02'0 0.0
2014-Dec-03 22:23S 29°53' E 031°02'0 0.0
2014-Dec-03 21:11S 29°53' E 031°02'0 0.0
2014-Dec-03 20:29S 29°53' E 031°02'0 0.0
2014-Dec-03 19:29S 29°53' E 031°02'0 0.0
2014-Dec-03 18:29S 29°53' E 031°01'0 0.0
2014-Dec-03 17:29S 29°53' E 031°02'0 0.0
2014-Dec-03 16:29S 29°53' E 031°02'0 0.0
2014-Dec-03 15:29S 29°53' E 031°02'0 0.0
2014-Dec-03 14:29S 29°53' E 031°02'0 0.0
2014-Dec-03 13:29S 29°53' E 031°02'0 0.0
2014-Dec-03 12:29S 29°53' E 031°02'0 0.0
2014-Dec-03 11:29S 29°53' E 031°01'0 0.0
2014-Dec-03 10:29S 29°53' E 031°02'0 0.0
2014-Dec-03 09:29S 29°53' E 031°02'0 0.0
2014-Dec-03 08:29S 29°53' E 031°02'0 0.0
2014-Dec-03 07:29S 29°53' E 031°02'0 0.0
2014-Dec-03 06:29S 29°53' E 031°02'0 0.0
2014-Dec-03 05:29S 29°53' E 031°02'0 0.0
2014-Dec-03 04:29S 29°53' E 031°02'0 0.0
2014-Dec-03 03:29S 29°53' E 031°02'0 0.0
2014-Dec-03 02:29S 29°53' E 031°02'0 0.0
2014-Dec-03 01:29S 29°53' E 031°02'0 0.0
2014-Dec-03 00:29S 29°53' E 031°01'0 0.0
2014-Dec-02 23:29S 29°53' E 031°02'0 0.0
2014-Dec-02 22:29S 29°53' E 031°02'0 0.0
2014-Dec-02 21:29S 29°53' E 031°02'0 0.0
2014-Dec-02 20:29S 29°53' E 031°02'0 0.0
2014-Dec-02 19:29S 29°53' E 031°02'0 0.0
2014-Dec-02 18:23S 29°53' E 031°02'0 0.0
2014-Dec-02 17:29S 29°53' E 031°02'0 0.0
2014-Dec-02 16:29S 29°53' E 031°02'0 0.0
2014-Dec-02 15:23S 29°53' E 031°01'0 0.0
2014-Dec-02 14:29S 29°53' E 031°02'0 0.0
2014-Dec-02 13:29S 29°53' E 031°02'0 0.0
2014-Dec-02 12:29S 29°53' E 031°02'0 0.0
2014-Dec-02 11:29S 29°53' E 031°01'0 0.0
2014-Dec-02 10:29S 29°53' E 031°02'0 0.0
2014-Dec-02 09:29S 29°53' E 031°02'0 0.0
2014-Dec-02 08:29S 29°53' E 031°02'0 0.0
2014-Dec-02 07:29S 29°53' E 031°02'0 0.0
2014-Dec-02 06:29S 29°53' E 031°02'0 0.0
2014-Dec-02 05:29S 29°53' E 031°02'0 0.0
2014-Dec-02 04:29S 29°53' E 031°02'0 0.0
2014-Dec-02 03:29S 29°53' E 031°02'0 0.0
2014-Dec-02 02:29S 29°53' E 031°02'0 0.0
2014-Dec-02 01:29S 29°53' E 031°02'0 0.0
2014-Dec-02 00:23S 29°53' E 031°02'0 0.0
2014-Dec-01 23:29S 29°53' E 031°02'0 0.0
2014-Dec-01 22:23S 29°53' E 031°02'0 0.0
2014-Dec-01 21:29S 29°53' E 031°02'0 0.0
2014-Dec-01 20:29S 29°53' E 031°02'4 4.4
2014-Dec-01 19:33S 29°50' E 031°05'2 1.7
2014-Dec-01 18:33S 29°49' E 031°07'2 2.1
2014-Dec-01 17:33S 29°47' E 031°06'0 0.3
2014-Dec-01 16:28S 29°47' E 031°06'0 0.0
2014-Dec-01 15:28S 29°47' E 031°06'0 0.0
2014-Dec-01 14:22S 29°47' E 031°06'0 0.0
2014-Dec-01 13:28S 29°47' E 031°06'0 0.0
2014-Dec-01 12:28S 29°47' E 031°06'0 0.0
2014-Dec-01 11:22S 29°47' E 031°06'0 0.0
2014-Dec-01 10:28S 29°47' E 031°06'0 0.0
2014-Dec-01 09:28S 29°47' E 031°06'0 0.0
2014-Dec-01 08:28S 29°47' E 031°06'0 0.0
2014-Dec-01 07:16S 29°47' E 031°06'0 0.0
2014-Dec-01 06:28S 29°47' E 031°06'0 0.0
2014-Dec-01 05:28S 29°47' E 031°06'0 0.0
2014-Dec-01 04:28S 29°47' E 031°06'0 0.0
2014-Dec-01 03:28S 29°47' E 031°06'0 0.0
2014-Dec-01 02:28S 29°47' E 031°06'0 0.0
2014-Dec-01 01:28S 29°47' E 031°06'0 0.0
2014-Dec-01 00:28S 29°47' E 031°06'0 0.0
2014-Nov-30 23:28S 29°47' E 031°06'0 0.0
2014-Nov-30 22:22S 29°47' E 031°06'0 0.0
2014-Nov-30 21:28S 29°47' E 031°06'0 0.0
2014-Nov-30 20:28S 29°47' E 031°06'1 0.6
2014-Nov-30 19:33S 29°47' E 031°07'7 7.1
2014-Nov-30 18:33S 29°47' E 031°15'1212.4
2014-Nov-30 17:33S 29°43' E 031°28'1312.6
2014-Nov-30 16:33S 29°40' E 031°42'  

Dump ship's entire track history